createdAt,value
2022-07-28T00:03:40.804Z,12.58
2022-07-28T00:13:46.639Z,12.26
2022-07-28T00:23:52.540Z,11.98
2022-07-28T00:34:01.285Z,11.72
2022-07-28T00:44:08.510Z,11.47
2022-07-28T00:54:14.677Z,11.24
2022-07-28T01:04:21.894Z,11.01
2022-07-28T01:14:36.257Z,10.80
2022-07-28T01:24:52.280Z,10.56
2022-07-28T01:35:01.903Z,10.32
2022-07-28T01:45:13.484Z,10.11
2022-07-28T01:55:21.349Z,9.98
2022-07-28T02:05:28.940Z,9.86
2022-07-28T02:15:35.619Z,9.65
2022-07-28T02:25:43.094Z,9.50
2022-07-28T02:35:57.487Z,9.40
2022-07-28T02:46:11.582Z,9.28
2022-07-28T02:56:18.778Z,9.17
2022-07-28T03:06:28.861Z,9.05
2022-07-28T03:16:34.999Z,9.05
2022-07-28T03:26:49.505Z,9.16
2022-07-28T03:37:02.402Z,9.31
2022-07-28T03:47:08.610Z,9.52
2022-07-28T03:57:14.715Z,9.81
2022-07-28T04:07:20.398Z,10.16
2022-07-28T04:17:26.301Z,10.97
2022-07-28T04:27:32.159Z,18.90
2022-07-28T04:37:38.077Z,26.94
2022-07-28T04:47:44.226Z,30.02
2022-07-28T04:57:50.147Z,27.81
2022-07-28T05:07:56.431Z,34.27
2022-07-28T05:18:00.775Z,38.63
2022-07-28T05:28:06.929Z,41.85
2022-07-28T05:38:13.045Z,44.12
2022-07-28T05:48:21.897Z,46.71
2022-07-28T05:58:27.657Z,48.87
2022-07-28T06:08:33.415Z,50.44
2022-07-28T06:18:39.061Z,51.74
2022-07-28T06:28:44.929Z,53.07
2022-07-28T06:38:50.932Z,52.20
2022-07-28T06:48:56.921Z,51.57
2022-07-28T06:59:03.813Z,52.74
2022-07-28T07:09:09.755Z,51.11
2022-07-28T07:19:16.105Z,49.51
2022-07-28T07:29:23.078Z,48.71
2022-07-28T07:39:28.818Z,50.00
2022-07-28T07:49:45.221Z,51.08
2022-07-28T07:59:51.713Z,48.97
2022-07-28T08:09:57.581Z,47.82
2022-07-28T08:20:04.636Z,40.82
2022-07-28T08:30:18.614Z,33.18
2022-07-28T08:40:30.272Z,30.17
2022-07-28T08:50:37.245Z,27.87
2022-07-28T09:00:42.463Z,26.86
2022-07-28T09:10:48.204Z,26.51
2022-07-28T09:20:54.503Z,27.28
2022-07-28T09:31:09.524Z,27.12
2022-07-28T09:41:19.012Z,26.61
2022-07-28T09:51:27.077Z,26.63
2022-07-28T10:01:36.839Z,25.47
2022-07-28T10:11:42.808Z,24.75
2022-07-28T10:21:53.351Z,24.75
2022-07-28T10:32:05.564Z,24.56
2022-07-28T10:42:13.766Z,24.37
2022-07-28T10:52:45.591Z,23.85
2022-07-28T11:02:58.996Z,23.53
2022-07-28T11:13:06.959Z,23.37
2022-07-28T11:23:46.244Z,23.37
2022-07-28T11:33:58.295Z,23.36
2022-07-28T11:44:28.008Z,23.43
2022-07-28T11:54:35.403Z,23.60
2022-07-28T12:04:41.337Z,24.03
2022-07-28T12:14:47.579Z,24.49
2022-07-28T12:24:59.677Z,24.96
2022-07-28T12:35:06.382Z,25.23
2022-07-28T12:45:13.308Z,25.10
2022-07-28T12:55:29.508Z,25.05
2022-07-28T13:05:58.242Z,25.25
2022-07-28T13:16:18.350Z,25.70
2022-07-28T13:26:24.382Z,25.53
2022-07-28T13:36:30.384Z,25.34
2022-07-28T13:46:40.401Z,25.03
2022-07-28T13:57:10.537Z,24.75
2022-07-28T14:07:16.384Z,25.12
2022-07-28T14:17:43.554Z,25.19
2022-07-28T14:27:51.759Z,24.79
2022-07-28T14:38:49.819Z,24.71
2022-07-28T14:48:23.910Z,24.46
2022-07-28T14:58:29.849Z,24.45
2022-07-28T15:08:35.656Z,24.52
2022-07-28T15:18:41.530Z,24.48
2022-07-28T15:28:48.526Z,24.52
2022-07-28T15:38:54.870Z,24.43
2022-07-28T15:49:04.888Z,24.26
2022-07-28T15:59:11.204Z,24.22
2022-07-28T16:09:17.396Z,24.18
2022-07-28T16:19:46.598Z,23.96
2022-07-28T16:29:50.718Z,23.60
2022-07-28T16:39:57.442Z,23.42
2022-07-28T16:50:03.304Z,23.20
2022-07-28T17:00:13.729Z,23.00
2022-07-28T17:10:21.133Z,23.29
2022-07-28T17:20:32.497Z,23.10
2022-07-28T17:30:38.450Z,22.80
2022-07-28T17:40:44.261Z,23.00
2022-07-28T17:50:51.425Z,23.19
2022-07-28T18:01:10.178Z,22.36
2022-07-28T18:11:17.621Z,22.37
2022-07-28T18:21:23.415Z,21.72
2022-07-28T18:31:29.346Z,21.00
2022-07-28T18:41:46.107Z,20.59
2022-07-28T18:51:54.990Z,20.22
2022-07-28T19:02:00.858Z,19.92
2022-07-28T19:12:08.020Z,19.66
2022-07-28T19:22:13.719Z,19.34
2022-07-28T19:32:19.477Z,19.02
2022-07-28T19:42:29.109Z,18.75
2022-07-28T19:52:35.079Z,18.61
2022-07-28T20:02:43.497Z,18.43
2022-07-28T20:12:49.560Z,18.25
2022-07-28T20:22:55.224Z,18.07
2022-07-28T20:33:02.408Z,17.81
2022-07-28T20:43:08.264Z,17.60
2022-07-28T20:53:14.063Z,17.37
2022-07-28T21:03:21.607Z,17.23
2022-07-28T21:13:27.542Z,17.26
2022-07-28T21:23:33.460Z,17.21
2022-07-28T21:33:39.516Z,17.07
2022-07-28T21:43:45.690Z,16.97
2022-07-28T21:53:52.678Z,16.84
2022-07-28T22:03:59.065Z,16.68
2022-07-28T22:14:05.187Z,16.58
2022-07-28T22:24:11.548Z,16.55
2022-07-28T22:34:17.698Z,16.39
2022-07-28T22:44:23.817Z,16.30
2022-07-28T22:54:29.608Z,16.23
2022-07-28T23:04:35.316Z,16.19
2022-07-28T23:14:41.195Z,16.09
2022-07-28T23:24:46.969Z,16.02
2022-07-28T23:34:52.783Z,15.92
2022-07-28T23:44:58.600Z,15.82
2022-07-28T23:55:04.836Z,15.77
